2017/06/27 22:00 VVNB 272200Z VRB01KT 9999 -RA SCT015 FEW030CB 26/26 Q1007 TEMPO 4000 TSRA
2017/06/27 22:00 VVDN 272200Z 20003KT 9999 FEW017 25/24 Q1009 NOSIG
2017/06/27 22:00 VVTS 272200Z VRB02KT 9999 FEW017 BKN050 27/26 Q1008 NOSIG
2017/06/27 22:00 VVPB 272200Z VRB02KT 9999 FEW017 SCT300 27/26 Q1008 NOSIG

Powered by MinhViet JSC.